sensor_id;sensor_type;location;lat;lon;timestamp;pressure;altitude;pressure_sealevel;temperature;humidity
7480;BME280;3781;42.272;22.658;2023-07-29T00:00:40;94166.72;;;15.32;nan
7480;BME280;3781;42.272;22.658;2023-07-29T00:03:06;94349.16;;;16.38;nan
7480;BME280;3781;42.272;22.658;2023-07-29T00:05:33;94341.94;;;16.17;nan
7480;BME280;3781;42.272;22.658;2023-07-29T00:08:00;94366.16;;;16.19;nan
7480;BME280;3781;42.272;22.658;2023-07-29T00:10:28;94335.31;;;16.07;nan
7480;BME280;3781;42.272;22.658;2023-07-29T00:12:55;94373.63;;;16.30;nan
7480;BME280;3781;42.272;22.658;2023-07-29T00:15:22;94255.88;;;15.61;nan
7480;BME280;3781;42.272;22.658;2023-07-29T00:17:48;94364.94;;;16.30;nan
7480;BME280;3781;42.272;22.658;2023-07-29T00:20:15;94362.31;;;16.30;nan
7480;BME280;3781;42.272;22.658;2023-07-29T00:22:42;94365.81;;;16.22;nan
7480;BME280;3781;42.272;22.658;2023-07-29T00:25:09;94361.97;;;16.10;nan
7480;BME280;3781;42.272;22.658;2023-07-29T00:27:37;94356.84;;;16.17;nan
7480;BME280;3781;42.272;22.658;2023-07-29T00:30:04;94353.16;;;16.03;nan
7480;BME280;3781;42.272;22.658;2023-07-29T00:32:31;94339.97;;;15.58;nan
7480;BME280;3781;42.272;22.658;2023-07-29T00:34:58;94334.34;;;15.30;nan
7480;BME280;3781;42.272;22.658;2023-07-29T00:37:26;94348.06;;;15.32;nan
7480;BME280;3781;42.272;22.658;2023-07-29T00:39:53;94346.63;;;15.22;nan
7480;BME280;3781;42.272;22.658;2023-07-29T00:42:20;94348.75;;;15.18;nan
7480;BME280;3781;42.272;22.658;2023-07-29T00:44:48;94345.75;;;15.45;nan
7480;BME280;3781;42.272;22.658;2023-07-29T00:47:15;94328.88;;;15.56;nan
7480;BME280;3781;42.272;22.658;2023-07-29T00:49:42;94303.72;;;15.47;nan
7480;BME280;3781;42.272;22.658;2023-07-29T00:52:10;94312.53;;;15.54;nan
7480;BME280;3781;42.272;22.658;2023-07-29T00:54:38;94344.19;;;15.67;nan
7480;BME280;3781;42.272;22.658;2023-07-29T00:57:05;94304.88;;;15.44;nan
7480;BME280;3781;42.272;22.658;2023-07-29T00:59:33;94251.81;;;15.20;nan
7480;BME280;3781;42.272;22.658;2023-07-29T01:02:03;94333.97;;;15.80;nan
7480;BME280;3781;42.272;22.658;2023-07-29T01:04:29;94331.88;;;15.75;nan
7480;BME280;3781;42.272;22.658;2023-07-29T01:07:03;94332.06;;;15.66;nan
7480;BME280;3781;42.272;22.658;2023-07-29T01:09:41;94276.97;;;15.29;nan
7480;BME280;3781;42.272;22.658;2023-07-29T01:12:16;94332.06;;;15.66;nan
7480;BME280;3781;42.272;22.658;2023-07-29T01:14:47;94213.97;;;14.99;nan
7480;BME280;3781;42.272;22.658;2023-07-29T01:17:23;94288.72;;;15.33;nan
7480;BME280;3781;42.272;22.658;2023-07-29T01:20:00;94284.16;;;15.27;nan
7480;BME280;3781;42.272;22.658;2023-07-29T01:22:28;94330.53;;;15.41;nan
7480;BME280;3781;42.272;22.658;2023-07-29T01:24:57;94333.75;;;15.20;nan
7480;BME280;3781;42.272;22.658;2023-07-29T01:27:24;94268.66;;;14.62;nan
7480;BME280;3781;42.272;22.658;2023-07-29T01:29:51;94333.34;;;14.76;nan
7480;BME280;3781;42.272;22.658;2023-07-29T01:32:23;94333.97;;;14.70;nan
7480;BME280;3781;42.272;22.658;2023-07-29T01:34:57;94284.06;;;14.33;nan
7480;BME280;3781;42.272;22.658;2023-07-29T01:37:30;94342.84;;;14.61;nan
7480;BME280;3781;42.272;22.658;2023-07-29T01:40:00;94213.22;;;13.72;nan
7480;BME280;3781;42.272;22.658;2023-07-29T01:42:28;94343.19;;;14.50;nan
7480;BME280;3781;42.272;22.658;2023-07-29T01:44:56;94262.00;;;14.03;nan
7480;BME280;3781;42.272;22.658;2023-07-29T01:47:23;94313.13;;;14.38;nan
7480;BME280;3781;42.272;22.658;2023-07-29T01:49:49;94333.19;;;14.62;nan
7480;BME280;3781;42.272;22.658;2023-07-29T01:52:16;94333.97;;;14.70;nan
7480;BME280;3781;42.272;22.658;2023-07-29T01:54:43;94330.06;;;14.66;nan
7480;BME280;3781;42.272;22.658;2023-07-29T01:57:11;94312.28;;;14.38;nan
7480;BME280;3781;42.272;22.658;2023-07-29T01:59:38;94336.31;;;14.65;nan
7480;BME280;3781;42.272;22.658;2023-07-29T02:02:05;94331.53;;;14.69;nan
7480;BME280;3781;42.272;22.658;2023-07-29T02:04:31;94349.03;;;14.76;nan
7480;BME280;3781;42.272;22.658;2023-07-29T02:06:58;94231.16;;;13.99;nan
7480;BME280;3781;42.272;22.658;2023-07-29T02:09:25;94343.16;;;14.58;nan
7480;BME280;3781;42.272;22.658;2023-07-29T02:11:52;94338.28;;;14.39;nan
7480;BME280;3781;42.272;22.658;2023-07-29T02:14:20;94298.41;;;14.05;nan
7480;BME280;3781;42.272;22.658;2023-07-29T02:16:47;94345.25;;;14.22;nan
7480;BME280;3781;42.272;22.658;2023-07-29T02:19:14;94344.72;;;13.95;nan
7480;BME280;3781;42.272;22.658;2023-07-29T02:21:41;94347.16;;;13.88;nan
7480;BME280;3781;42.272;22.658;2023-07-29T02:24:08;94346.34;;;13.88;nan
7480;BME280;3781;42.272;22.658;2023-07-29T02:26:35;94328.41;;;13.85;nan
7480;BME280;3781;42.272;22.658;2023-07-29T02:29:01;94326.09;;;13.90;nan
7480;BME280;3781;42.272;22.658;2023-07-29T02:31:29;94274.19;;;13.63;nan
7480;BME280;3781;42.272;22.658;2023-07-29T02:33:56;94339.84;;;14.16;nan
7480;BME280;3781;42.272;22.658;2023-07-29T02:36:23;94335.94;;;13.96;nan
7480;BME280;3781;42.272;22.658;2023-07-29T02:38:50;94337.84;;;13.70;nan
7480;BME280;3781;42.272;22.658;2023-07-29T02:41:16;94320.44;;;13.36;nan
7480;BME280;3781;42.272;22.658;2023-07-29T02:43:47;94274.59;;;12.92;nan
7480;BME280;3781;42.272;22.658;2023-07-29T02:46:14;94344.16;;;13.17;nan
7480;BME280;3781;42.272;22.658;2023-07-29T02:48:42;94299.25;;;12.72;nan
7480;BME280;3781;42.272;22.658;2023-07-29T02:51:09;94339.63;;;13.27;nan
7480;BME280;3781;42.272;22.658;2023-07-29T02:53:36;94344.38;;;13.32;nan
7480;BME280;3781;42.272;22.658;2023-07-29T02:56:03;94230.34;;;12.74;nan
7480;BME280;3781;42.272;22.658;2023-07-29T02:58:30;94320.13;;;13.39;nan
7480;BME280;3781;42.272;22.658;2023-07-29T03:01:00;94362.91;;;13.54;nan
7480;BME280;3781;42.272;22.658;2023-07-29T03:03:27;94343.63;;;13.47;nan
7480;BME280;3781;42.272;22.658;2023-07-29T03:05:59;94364.06;;;13.60;nan
7480;BME280;3781;42.272;22.658;2023-07-29T03:08:25;94363.94;;;13.70;nan
7480;BME280;3781;42.272;22.658;2023-07-29T03:10:52;94365.53;;;13.71;nan
7480;BME280;3781;42.272;22.658;2023-07-29T03:13:19;94357.41;;;13.74;nan
7480;BME280;3781;42.272;22.658;2023-07-29T03:15:45;94248.94;;;13.05;nan
7480;BME280;3781;42.272;22.658;2023-07-29T03:18:12;94359.34;;;13.64;nan
7480;BME280;3781;42.272;22.658;2023-07-29T03:20:39;94362.25;;;13.52;nan
7480;BME280;3781;42.272;22.658;2023-07-29T03:23:07;94359.59;;;13.44;nan
7480;BME280;3781;42.272;22.658;2023-07-29T03:25:34;94325.28;;;13.23;nan
7480;BME280;3781;42.272;22.658;2023-07-29T03:28:00;94371.41;;;13.65;nan
7480;BME280;3781;42.272;22.658;2023-07-29T03:30:27;94295.28;;;13.27;nan
7480;BME280;3781;42.272;22.658;2023-07-29T03:32:54;94353.13;;;13.65;nan
7480;BME280;3781;42.272;22.658;2023-07-29T03:35:21;94363.47;;;13.82;nan
7480;BME280;3781;42.272;22.658;2023-07-29T03:37:47;94365.25;;;13.90;nan
7480;BME280;3781;42.272;22.658;2023-07-29T03:40:15;94361.19;;;13.87;nan
7480;BME280;3781;42.272;22.658;2023-07-29T03:42:43;94371.66;;;13.87;nan
7480;BME280;3781;42.272;22.658;2023-07-29T03:45:10;94358.72;;;13.86;nan
7480;BME280;3781;42.272;22.658;2023-07-29T03:47:37;94320.50;;;13.52;nan
7480;BME280;3781;42.272;22.658;2023-07-29T03:50:05;94359.44;;;13.96;nan
7480;BME280;3781;42.272;22.658;2023-07-29T03:52:32;94337.88;;;13.94;nan
7480;BME280;3781;42.272;22.658;2023-07-29T03:54:58;94362.38;;;14.17;nan
7480;BME280;3781;42.272;22.658;2023-07-29T03:57:26;94355.88;;;14.29;nan
7480;BME280;3781;42.272;22.658;2023-07-29T03:59:54;94352.94;;;14.40;nan
7480;BME280;3781;42.272;22.658;2023-07-29T04:02:21;94354.94;;;14.54;nan
7480;BME280;3781;42.272;22.658;2023-07-29T04:04:47;94343.16;;;14.58;nan
7480;BME280;3781;42.272;22.658;2023-07-29T04:07:14;94329.78;;;14.61;nan
7480;BME280;3781;42.272;22.658;2023-07-29T04:09:41;94301.38;;;14.50;nan
7480;BME280;3781;42.272;22.658;2023-07-29T04:12:09;94367.63;;;14.97;nan
7480;BME280;3781;42.272;22.658;2023-07-29T04:14:37;94288.59;;;14.71;nan
7480;BME280;3781;42.272;22.658;2023-07-29T04:17:05;94358.22;;;15.27;nan
7480;BME280;3781;42.272;22.658;2023-07-29T04:19:31;94368.59;;;15.59;nan
7480;BME280;3781;42.272;22.658;2023-07-29T04:21:58;94365.41;;;15.80;nan
7480;BME280;3781;42.272;22.658;2023-07-29T04:24:25;94321.28;;;15.69;nan
7480;BME280;3781;42.272;22.658;2023-07-29T04:26:52;94374.34;;;16.16;nan
7480;BME280;3781;42.272;22.658;2023-07-29T04:29:19;94376.38;;;16.37;nan
7480;BME280;3781;42.272;22.658;2023-07-29T04:31:47;94327.25;;;16.08;nan
7480;BME280;3781;42.272;22.658;2023-07-29T04:34:14;94381.72;;;16.66;nan
7480;BME280;3781;42.272;22.658;2023-07-29T04:36:40;94331.22;;;16.49;nan
7480;BME280;3781;42.272;22.658;2023-07-29T04:39:07;94385.19;;;17.04;nan
7480;BME280;3781;42.272;22.658;2023-07-29T04:41:34;94386.03;;;17.33;nan
7480;BME280;3781;42.272;22.658;2023-07-29T04:44:01;94381.63;;;17.63;nan
7480;BME280;3781;42.272;22.658;2023-07-29T04:46:31;94391.28;;;18.06;nan
7480;BME280;3781;42.272;22.658;2023-07-29T04:48:59;94392.03;;;18.22;nan
7480;BME280;3781;42.272;22.658;2023-07-29T04:51:26;94394.69;;;18.22;nan
7480;BME280;3781;42.272;22.658;2023-07-29T04:53:52;94360.16;;;18.10;nan
7480;BME280;3781;42.272;22.658;2023-07-29T04:56:19;94367.97;;;18.03;nan
7480;BME280;3781;42.272;22.658;2023-07-29T04:58:46;94396.69;;;18.41;nan
7480;BME280;3781;42.272;22.658;2023-07-29T05:01:13;94402.25;;;18.46;nan
7480;BME280;3781;42.272;22.658;2023-07-29T05:03:40;94401.75;;;18.78;nan
7480;BME280;3781;42.272;22.658;2023-07-29T05:06:08;94396.19;;;19.15;nan
7480;BME280;3781;42.272;22.658;2023-07-29T05:08:34;94374.97;;;19.23;nan
7480;BME280;3781;42.272;22.658;2023-07-29T05:11:01;94389.47;;;19.62;nan
7480;BME280;3781;42.272;22.658;2023-07-29T05:13:28;94394.38;;;19.78;nan
7480;BME280;3781;42.272;22.658;2023-07-29T05:15:54;94389.56;;;20.22;nan
7480;BME280;3781;42.272;22.658;2023-07-29T05:18:21;94375.59;;;20.35;nan
7480;BME280;3781;42.272;22.658;2023-07-29T05:20:48;94395.97;;;20.86;nan
7480;BME280;3781;42.272;22.658;2023-07-29T05:23:16;94405.78;;;21.32;nan
7480;BME280;3781;42.272;22.658;2023-07-29T05:28:41;94411.28;;;22.33;nan
7480;BME280;3781;42.272;22.658;2023-07-29T05:31:08;94231.28;;;21.64;nan
7480;BME280;3781;42.272;22.658;2023-07-29T05:33:35;94383.75;;;22.79;nan
7480;BME280;3781;42.272;22.658;2023-07-29T05:36:02;94414.81;;;23.21;nan
7480;BME280;3781;42.272;22.658;2023-07-29T05:38:47;94405.50;;;23.12;nan
7480;BME280;3781;42.272;22.658;2023-07-29T05:41:17;94422.53;;;22.98;nan
7480;BME280;3781;42.272;22.658;2023-07-29T05:43:44;94419.72;;;22.62;nan
7480;BME280;3781;42.272;22.658;2023-07-29T05:46:31;94382.91;;;21.96;nan
7480;BME280;3781;42.272;22.658;2023-07-29T05:49:02;94411.59;;;21.93;nan
7480;BME280;3781;42.272;22.658;2023-07-29T05:51:28;94383.00;;;21.50;nan
7480;BME280;3781;42.272;22.658;2023-07-29T05:54:03;94401.69;;;21.36;nan
7480;BME280;3781;42.272;22.658;2023-07-29T05:56:29;94415.53;;;21.38;nan
7480;BME280;3781;42.272;22.658;2023-07-29T05:58:57;94417.16;;;21.26;nan
7480;BME280;3781;42.272;22.658;2023-07-29T06:01:23;94340.75;;;20.65;nan
7480;BME280;3781;42.272;22.658;2023-07-29T06:03:50;94420.41;;;21.15;nan
7480;BME280;3781;42.272;22.658;2023-07-29T06:06:17;94374.03;;;20.79;nan
7480;BME280;3781;42.272;22.658;2023-07-29T06:08:44;94413.09;;;21.10;nan
7480;BME280;3781;42.272;22.658;2023-07-29T06:11:12;94416.13;;;21.00;nan
7480;BME280;3781;42.272;22.658;2023-07-29T06:13:38;94356.59;;;20.72;nan
7480;BME280;3781;42.272;22.658;2023-07-29T06:16:05;94410.66;;;21.09;nan
7480;BME280;3781;42.272;22.658;2023-07-29T06:18:32;94411.47;;;21.22;nan
7480;BME280;3781;42.272;22.658;2023-07-29T06:20:59;94398.06;;;21.24;nan
7480;BME280;3781;42.272;22.658;2023-07-29T06:23:25;94409.63;;;21.36;nan
7480;BME280;3781;42.272;22.658;2023-07-29T06:25:52;94354.59;;;21.07;nan
7480;BME280;3781;42.272;22.658;2023-07-29T06:28:20;94412.47;;;21.54;nan
7480;BME280;3781;42.272;22.658;2023-07-29T06:30:47;94407.59;;;21.64;nan
7480;BME280;3781;42.272;22.658;2023-07-29T06:33:14;94386.84;;;21.61;nan
7480;BME280;3781;42.272;22.658;2023-07-29T06:35:41;94402.44;;;21.82;nan
7480;BME280;3781;42.272;22.658;2023-07-29T06:38:08;94395.09;;;21.97;nan
7480;BME280;3781;42.272;22.658;2023-07-29T06:40:34;94388.94;;;22.10;nan
7480;BME280;3781;42.272;22.658;2023-07-29T06:43:01;94387.31;;;22.15;nan
7480;BME280;3781;42.272;22.658;2023-07-29T06:45:29;94379.31;;;22.28;nan
7480;BME280;3781;42.272;22.658;2023-07-29T06:47:56;94306.84;;;21.92;nan
7480;BME280;3781;42.272;22.658;2023-07-29T06:50:23;94373.72;;;22.49;nan
7480;BME280;3781;42.272;22.658;2023-07-29T06:52:49;94348.09;;;22.43;nan
7480;BME280;3781;42.272;22.658;2023-07-29T06:55:16;94367.50;;;22.69;nan
7480;BME280;3781;42.272;22.658;2023-07-29T06:57:43;94388.09;;;22.98;nan
7480;BME280;3781;42.272;22.658;2023-07-29T07:00:10;94326.19;;;22.68;nan
7480;BME280;3781;42.272;22.658;2023-07-29T07:02:38;94390.94;;;23.03;nan
7480;BME280;3781;42.272;22.658;2023-07-29T07:05:05;94388.19;;;22.85;nan
7480;BME280;3781;42.272;22.658;2023-07-29T07:07:32;94352.53;;;22.49;nan
7480;BME280;3781;42.272;22.658;2023-07-29T07:09:59;94384.63;;;22.73;nan
7480;BME280;3781;42.272;22.658;2023-07-29T07:12:26;94384.53;;;22.86;nan
7480;BME280;3781;42.272;22.658;2023-07-29T07:14:53;94378.69;;;23.02;nan
7480;BME280;3781;42.272;22.658;2023-07-29T07:17:20;94373.78;;;23.30;nan
7480;BME280;3781;42.272;22.658;2023-07-29T07:19:48;94234.72;;;22.72;nan
7480;BME280;3781;42.272;22.658;2023-07-29T07:22:15;94367.41;;;23.80;nan
7480;BME280;3781;42.272;22.658;2023-07-29T07:24:43;94328.78;;;23.84;nan
7480;BME280;3781;42.272;22.658;2023-07-29T07:27:09;94302.44;;;23.89;nan
7480;BME280;3781;42.272;22.658;2023-07-29T07:29:36;94371.97;;;24.46;nan
7480;BME280;3781;42.272;22.658;2023-07-29T07:32:03;94326.69;;;24.41;nan
7480;BME280;3781;42.272;22.658;2023-07-29T07:34:30;94375.84;;;24.91;nan
7480;BME280;3781;42.272;22.658;2023-07-29T07:36:59;94358.97;;;24.97;nan
7480;BME280;3781;42.272;22.658;2023-07-29T07:39:26;94369.47;;;25.33;nan
7480;BME280;3781;42.272;22.658;2023-07-29T07:41:53;94367.06;;;25.55;nan
7480;BME280;3781;42.272;22.658;2023-07-29T07:44:20;94284.94;;;25.12;nan
7480;BME280;3781;42.272;22.658;2023-07-29T07:46:47;94374.47;;;25.76;nan
7480;BME280;3781;42.272;22.658;2023-07-29T07:49:13;94375.03;;;25.90;nan
7480;BME280;3781;42.272;22.658;2023-07-29T07:51:40;94373.41;;;25.89;nan
7480;BME280;3781;42.272;22.658;2023-07-29T07:54:08;94332.69;;;25.77;nan
7480;BME280;3781;42.272;22.658;2023-07-29T07:56:35;94377.09;;;26.11;nan
7480;BME280;3781;42.272;22.658;2023-07-29T07:59:02;94342.81;;;26.14;nan
7480;BME280;3781;42.272;22.658;2023-07-29T08:01:34;94373.91;;;26.65;nan
7480;BME280;3781;42.272;22.658;2023-07-29T08:04:00;94373.84;;;26.88;nan
7480;BME280;3781;42.272;22.658;2023-07-29T08:06:27;94376.97;;;27.14;nan
7480;BME280;3781;42.272;22.658;2023-07-29T08:08:54;94373.41;;;27.25;nan
7480;BME280;3781;42.272;22.658;2023-07-29T08:11:22;94331.69;;;27.19;nan
7480;BME280;3781;42.272;22.658;2023-07-29T08:13:49;94346.28;;;27.44;nan
7480;BME280;3781;42.272;22.658;2023-07-29T08:16:15;94369.19;;;27.79;nan
7480;BME280;3781;42.272;22.658;2023-07-29T08:18:42;94206.31;;;26.97;nan
7480;BME280;3781;42.272;22.658;2023-07-29T08:21:09;94345.69;;;28.14;nan
7480;BME280;3781;42.272;22.658;2023-07-29T08:23:36;94351.56;;;28.38;nan
7480;BME280;3781;42.272;22.658;2023-07-29T08:26:04;94369.03;;;28.67;nan
7480;BME280;3781;42.272;22.658;2023-07-29T08:28:33;94361.22;;;28.87;nan
7480;BME280;3781;42.272;22.658;2023-07-29T08:31:01;94342.84;;;28.95;nan
7480;BME280;3781;42.272;22.658;2023-07-29T08:33:28;94351.34;;;29.14;nan
7480;BME280;3781;42.272;22.658;2023-07-29T08:35:55;94348.72;;;29.19;nan
7480;BME280;3781;42.272;22.658;2023-07-29T08:38:21;94355.06;;;29.40;nan
7480;BME280;3781;42.272;22.658;2023-07-29T08:40:52;94309.78;;;29.33;nan
7480;BME280;3781;42.272;22.658;2023-07-29T08:43:24;94310.47;;;29.55;nan
7480;BME280;3781;42.272;22.658;2023-07-29T08:45:57;94357.34;;;29.95;nan
7480;BME280;3781;42.272;22.658;2023-07-29T08:48:31;94317.72;;;29.97;nan
7480;BME280;3781;42.272;22.658;2023-07-29T08:50:59;94290.38;;;30.00;nan
7480;BME280;3781;42.272;22.658;2023-07-29T08:53:29;94334.53;;;30.44;nan
7480;BME280;3781;42.272;22.658;2023-07-29T08:55:58;94356.03;;;30.59;nan
7480;BME280;3781;42.272;22.658;2023-07-29T08:58:26;94347.47;;;30.62;nan
7480;BME280;3781;42.272;22.658;2023-07-29T09:00:53;94251.97;;;30.36;nan
7480;BME280;3781;42.272;22.658;2023-07-29T09:03:21;94301.44;;;31.20;nan
7480;BME280;3781;42.272;22.658;2023-07-29T09:05:48;94334.16;;;32.03;nan
7480;BME280;3781;42.272;22.658;2023-07-29T09:08:16;94344.94;;;32.67;nan
7480;BME280;3781;42.272;22.658;2023-07-29T09:10:43;94344.94;;;33.21;nan
7480;BME280;3781;42.272;22.658;2023-07-29T09:13:10;94215.97;;;32.86;nan
7480;BME280;3781;42.272;22.658;2023-07-29T09:15:37;94348.13;;;34.43;nan
7480;BME280;3781;42.272;22.658;2023-07-29T09:18:11;94319.09;;;34.77;nan
7480;BME280;3781;42.272;22.658;2023-07-29T09:20:42;94349.66;;;34.91;nan
7480;BME280;3781;42.272;22.658;2023-07-29T09:23:10;94237.91;;;34.36;nan
7480;BME280;3781;42.272;22.658;2023-07-29T09:25:40;94310.03;;;35.10;nan
7480;BME280;3781;42.272;22.658;2023-07-29T09:28:08;94340.00;;;35.27;nan
7480;BME280;3781;42.272;22.658;2023-07-29T09:30:39;94334.06;;;34.88;nan
7480;BME280;3781;42.272;22.658;2023-07-29T09:33:09;94328.72;;;35.39;nan
7480;BME280;3781;42.272;22.658;2023-07-29T09:35:37;94298.88;;;35.30;nan
7480;BME280;3781;42.272;22.658;2023-07-29T09:38:06;94333.78;;;36.10;nan
7480;BME280;3781;42.272;22.658;2023-07-29T09:40:37;94327.06;;;36.75;nan
7480;BME280;3781;42.272;22.658;2023-07-29T09:43:04;94322.34;;;36.67;nan
7480;BME280;3781;42.272;22.658;2023-07-29T09:45:33;94320.09;;;35.88;nan
7480;BME280;3781;42.272;22.658;2023-07-29T09:48:01;94306.53;;;36.33;nan
7480;BME280;3781;42.272;22.658;2023-07-29T09:50:28;94253.44;;;36.51;nan
7480;BME280;3781;42.272;22.658;2023-07-29T09:52:56;94274.69;;;36.93;nan
7480;BME280;3781;42.272;22.658;2023-07-29T09:55:26;94322.72;;;37.37;nan
7480;BME280;3781;42.272;22.658;2023-07-29T09:57:55;94306.25;;;36.62;nan
7480;BME280;3781;42.272;22.658;2023-07-29T10:00:22;94321.88;;;35.79;nan
7480;BME280;3781;42.272;22.658;2023-07-29T10:02:50;94197.06;;;33.01;nan
7480;BME280;3781;42.272;22.658;2023-07-29T10:05:20;94256.16;;;32.23;nan
7480;BME280;3781;42.272;22.658;2023-07-29T10:08:17;94002.19;;;30.49;nan
7480;BME280;3781;42.272;22.658;2023-07-29T10:14:11;94295.69;;;33.49;nan
7480;BME280;3781;42.272;22.658;2023-07-29T10:16:39;94292.38;;;34.14;nan
7480;BME280;3781;42.272;22.658;2023-07-29T10:19:07;94303.00;;;35.09;nan
7480;BME280;3781;42.272;22.658;2023-07-29T10:21:35;94294.22;;;35.17;nan
7480;BME280;3781;42.272;22.658;2023-07-29T10:25:46;94287.00;;;35.64;nan
7480;BME280;3781;42.272;22.658;2023-07-29T10:27:28;94293.00;;;35.60;nan
7480;BME280;3781;42.272;22.658;2023-07-29T10:30:11;94273.63;;;35.86;nan
7480;BME280;3781;42.272;22.658;2023-07-29T10:32:41;94274.47;;;36.27;nan
7480;BME280;3781;42.272;22.658;2023-07-29T10:35:12;94276.59;;;36.44;nan
7480;BME280;3781;42.272;22.658;2023-07-29T10:37:39;94258.25;;;36.00;nan
7480;BME280;3781;42.272;22.658;2023-07-29T10:40:08;94266.25;;;36.05;nan
7480;BME280;3781;42.272;22.658;2023-07-29T10:42:35;94267.66;;;35.89;nan
7480;BME280;3781;42.272;22.658;2023-07-29T10:45:21;94266.25;;;36.18;nan
7480;BME280;3781;42.272;22.658;2023-07-29T10:47:48;94267.84;;;36.33;nan
7480;BME280;3781;42.272;22.658;2023-07-29T10:50:20;94253.94;;;35.99;nan
7480;BME280;3781;42.272;22.658;2023-07-29T10:52:51;94254.22;;;35.84;nan
7480;BME280;3781;42.272;22.658;2023-07-29T10:55:26;94235.28;;;35.84;nan
7480;BME280;3781;42.272;22.658;2023-07-29T10:58:05;94229.19;;;35.92;nan
7480;BME280;3781;42.272;22.658;2023-07-29T11:00:34;94223.97;;;35.68;nan
7480;BME280;3781;42.272;22.658;2023-07-29T11:03:02;94238.22;;;36.01;nan
7480;BME280;3781;42.272;22.658;2023-07-29T11:05:45;94235.22;;;35.89;nan
7480;BME280;3781;42.272;22.658;2023-07-29T11:08:21;94234.34;;;35.61;nan
7480;BME280;3781;42.272;22.658;2023-07-29T11:11:05;94231.59;;;35.34;nan
7480;BME280;3781;42.272;22.658;2023-07-29T11:13:33;94242.78;;;35.59;nan
7480;BME280;3781;42.272;22.658;2023-07-29T11:16:02;94234.53;;;36.10;nan
7480;BME280;3781;42.272;22.658;2023-07-29T11:18:30;94240.94;;;36.77;nan
7480;BME280;3781;42.272;22.658;2023-07-29T11:21:03;94118.56;;;36.31;nan
7480;BME280;3781;42.272;22.658;2023-07-29T11:23:34;94231.00;;;37.09;nan
7480;BME280;3781;42.272;22.658;2023-07-29T11:26:05;94236.34;;;37.36;nan
7480;BME280;3781;42.272;22.658;2023-07-29T11:28:38;94227.06;;;37.37;nan
7480;BME280;3781;42.272;22.658;2023-07-29T11:31:06;94190.25;;;37.14;nan
7480;BME280;3781;42.272;22.658;2023-07-29T11:33:34;94176.34;;;37.90;nan
7480;BME280;3781;42.272;22.658;2023-07-29T11:36:00;94229.19;;;38.58;nan
7480;BME280;3781;42.272;22.658;2023-07-29T11:38:57;94221.78;;;37.85;nan
7480;BME280;3781;42.272;22.658;2023-07-29T11:41:24;94205.13;;;36.58;nan
7480;BME280;3781;42.272;22.658;2023-07-29T11:43:51;94217.78;;;36.22;nan
7480;BME280;3781;42.272;22.658;2023-07-29T11:46:22;94212.97;;;35.92;nan
7480;BME280;3781;42.272;22.658;2023-07-29T11:48:49;94217.97;;;36.25;nan
7480;BME280;3781;42.272;22.658;2023-07-29T11:51:16;94201.75;;;36.12;nan
7480;BME280;3781;42.272;22.658;2023-07-29T11:53:46;94185.53;;;35.85;nan
7480;BME280;3781;42.272;22.658;2023-07-29T11:56:13;94043.38;;;35.84;nan
7480;BME280;3781;42.272;22.658;2023-07-29T11:58:40;94180.13;;;37.19;nan
7480;BME280;3781;42.272;22.658;2023-07-29T12:01:07;94203.53;;;36.79;nan
7480;BME280;3781;42.272;22.658;2023-07-29T12:03:35;94199.34;;;36.24;nan
7480;BME280;3781;42.272;22.658;2023-07-29T12:06:02;94180.38;;;35.42;nan
7480;BME280;3781;42.272;22.658;2023-07-29T12:08:29;94183.59;;;34.80;nan
7480;BME280;3781;42.272;22.658;2023-07-29T12:10:56;94181.31;;;34.50;nan
7480;BME280;3781;42.272;22.658;2023-07-29T12:13:24;94196.84;;;34.39;nan
7480;BME280;3781;42.272;22.658;2023-07-29T12:15:50;94179.94;;;33.91;nan
7480;BME280;3781;42.272;22.658;2023-07-29T12:18:17;94191.25;;;33.70;nan
7480;BME280;3781;42.272;22.658;2023-07-29T12:20:45;94184.03;;;33.36;nan
7480;BME280;3781;42.272;22.658;2023-07-29T12:23:12;94191.13;;;33.04;nan
7480;BME280;3781;42.272;22.658;2023-07-29T12:25:39;94116.53;;;32.03;nan
7480;BME280;3781;42.272;22.658;2023-07-29T12:28:06;94172.66;;;31.99;nan
7480;BME280;3781;42.272;22.658;2023-07-29T12:30:33;93967.91;;;30.46;nan
7480;BME280;3781;42.272;22.658;2023-07-29T12:32:59;94152.19;;;31.35;nan
7480;BME280;3781;42.272;22.658;2023-07-29T12:35:35;94100.25;;;30.80;nan
7480;BME280;3781;42.272;22.658;2023-07-29T12:38:03;94126.25;;;30.85;nan
7480;BME280;3781;42.272;22.658;2023-07-29T12:40:32;94165.44;;;30.91;nan
7480;BME280;3781;42.272;22.658;2023-07-29T12:42:59;94112.84;;;30.19;nan
7480;BME280;3781;42.272;22.658;2023-07-29T12:45:26;94133.19;;;30.10;nan
7480;BME280;3781;42.272;22.658;2023-07-29T12:47:54;94133.94;;;29.86;nan
7480;BME280;3781;42.272;22.658;2023-07-29T12:50:20;94172.72;;;29.73;nan
7480;BME280;3781;42.272;22.658;2023-07-29T12:52:47;94162.09;;;29.36;nan
7480;BME280;3781;42.272;22.658;2023-07-29T12:55:15;94186.78;;;29.06;nan
7480;BME280;3781;42.272;22.658;2023-07-29T12:57:42;94178.16;;;28.63;nan
7480;BME280;3781;42.272;22.658;2023-07-29T13:00:10;94194.09;;;28.53;nan
7480;BME280;3781;42.272;22.658;2023-07-29T13:02:37;94188.66;;;28.43;nan
7480;BME280;3781;42.272;22.658;2023-07-29T13:05:05;94183.94;;;28.23;nan
7480;BME280;3781;42.272;22.658;2023-07-29T13:07:32;94212.72;;;28.43;nan
7480;BME280;3781;42.272;22.658;2023-07-29T13:10:00;94215.88;;;28.40;nan
7480;BME280;3781;42.272;22.658;2023-07-29T13:12:28;94209.13;;;28.32;nan
7480;BME280;3781;42.272;22.658;2023-07-29T13:14:55;94212.31;;;28.29;nan
7480;BME280;3781;42.272;22.658;2023-07-29T13:17:22;94184.91;;;27.90;nan
7480;BME280;3781;42.272;22.658;2023-07-29T13:19:49;94229.78;;;28.15;nan
7480;BME280;3781;42.272;22.658;2023-07-29T13:22:16;94220.09;;;28.09;nan
7480;BME280;3781;42.272;22.658;2023-07-29T13:24:42;94163.50;;;27.63;nan
7480;BME280;3781;42.272;22.658;2023-07-29T13:27:09;94184.28;;;27.83;nan
7480;BME280;3781;42.272;22.658;2023-07-29T13:29:37;94205.75;;;28.15;nan
7480;BME280;3781;42.272;22.658;2023-07-29T13:32:05;94209.56;;;27.97;nan
7480;BME280;3781;42.272;22.658;2023-07-29T13:34:31;94216.75;;;27.75;nan
7480;BME280;3781;42.272;22.658;2023-07-29T13:36:59;94147.50;;;27.04;nan
7480;BME280;3781;42.272;22.658;2023-07-29T13:39:26;94234.09;;;27.18;nan
7480;BME280;3781;42.272;22.658;2023-07-29T13:41:52;94220.31;;;26.87;nan
7480;BME280;3781;42.272;22.658;2023-07-29T13:44:20;94193.88;;;26.69;nan